sensor_id;sensor_type;location;lat;lon;timestamp;temperature;humidity
25450;DHT22;13371;52.080;5.624;2023-11-19T00:00:33;14.90;99.90
25450;DHT22;13371;52.080;5.624;2023-11-19T00:02:59;14.90;99.90
25450;DHT22;13371;52.080;5.624;2023-11-19T00:05:24;15.00;99.90
25450;DHT22;13371;52.080;5.624;2023-11-19T00:07:50;15.10;99.90
25450;DHT22;13371;52.080;5.624;2023-11-19T00:10:16;15.20;99.90
25450;DHT22;13371;52.080;5.624;2023-11-19T00:12:46;15.40;99.90
25450;DHT22;13371;52.080;5.624;2023-11-19T00:15:12;15.30;99.90
25450;DHT22;13371;52.080;5.624;2023-11-19T00:17:39;15.30;99.90
25450;DHT22;13371;52.080;5.624;2023-11-19T00:20:14;15.20;99.90
25450;DHT22;13371;52.080;5.624;2023-11-19T00:22:41;15.10;99.90
25450;DHT22;13371;52.080;5.624;2023-11-19T00:25:08;15.10;99.90
25450;DHT22;13371;52.080;5.624;2023-11-19T00:27:34;15.20;99.90
25450;DHT22;13371;52.080;5.624;2023-11-19T00:29:59;15.20;99.90
25450;DHT22;13371;52.080;5.624;2023-11-19T00:32:25;15.30;99.90
25450;DHT22;13371;52.080;5.624;2023-11-19T00:34:50;15.40;99.90
25450;DHT22;13371;52.080;5.624;2023-11-19T00:37:16;15.40;99.90
25450;DHT22;13371;52.080;5.624;2023-11-19T00:39:42;15.50;99.90
25450;DHT22;13371;52.080;5.624;2023-11-19T00:42:09;15.40;99.90
25450;DHT22;13371;52.080;5.624;2023-11-19T00:44:39;15.50;99.90
25450;DHT22;13371;52.080;5.624;2023-11-19T00:47:05;15.40;99.90
25450;DHT22;13371;52.080;5.624;2023-11-19T00:49:31;15.30;99.90
25450;DHT22;13371;52.080;5.624;2023-11-19T00:52:00;15.40;99.90
25450;DHT22;13371;52.080;5.624;2023-11-19T00:54:25;15.30;99.90
25450;DHT22;13371;52.080;5.624;2023-11-19T00:56:54;15.30;99.90
25450;DHT22;13371;52.080;5.624;2023-11-19T00:59:20;15.30;99.90
25450;DHT22;13371;52.080;5.624;2023-11-19T01:01:46;15.20;99.90
25450;DHT22;13371;52.080;5.624;2023-11-19T01:04:14;15.40;99.90
25450;DHT22;13371;52.080;5.624;2023-11-19T01:06:40;15.30;99.90
25450;DHT22;13371;52.080;5.624;2023-11-19T01:09:05;15.30;99.90
25450;DHT22;13371;52.080;5.624;2023-11-19T01:11:31;15.20;99.90
25450;DHT22;13371;52.080;5.624;2023-11-19T01:13:56;15.30;99.90
25450;DHT22;13371;52.080;5.624;2023-11-19T01:16:22;15.50;99.90
25450;DHT22;13371;52.080;5.624;2023-11-19T01:18:48;15.70;99.90
25450;DHT22;13371;52.080;5.624;2023-11-19T01:21:14;15.60;99.90
25450;DHT22;13371;52.080;5.624;2023-11-19T01:23:40;15.60;99.90
25450;DHT22;13371;52.080;5.624;2023-11-19T01:26:08;15.60;99.90
25450;DHT22;13371;52.080;5.624;2023-11-19T01:28:35;15.40;99.90
25450;DHT22;13371;52.080;5.624;2023-11-19T01:31:01;15.30;99.90
25450;DHT22;13371;52.080;5.624;2023-11-19T01:33:27;15.20;99.90
25450;DHT22;13371;52.080;5.624;2023-11-19T01:35:53;15.40;99.90
25450;DHT22;13371;52.080;5.624;2023-11-19T01:38:19;15.30;99.90
25450;DHT22;13371;52.080;5.624;2023-11-19T01:40:44;15.30;99.90
25450;DHT22;13371;52.080;5.624;2023-11-19T01:43:10;15.20;99.90
25450;DHT22;13371;52.080;5.624;2023-11-19T01:45:40;15.10;99.90
25450;DHT22;13371;52.080;5.624;2023-11-19T01:48:06;15.20;99.90
25450;DHT22;13371;52.080;5.624;2023-11-19T01:50:33;14.90;99.90
25450;DHT22;13371;52.080;5.624;2023-11-19T01:52:58;15.10;99.90
25450;DHT22;13371;52.080;5.624;2023-11-19T01:55:25;14.90;99.90
25450;DHT22;13371;52.080;5.624;2023-11-19T01:57:54;15.00;99.90
25450;DHT22;13371;52.080;5.624;2023-11-19T02:00:21;14.90;99.90
25450;DHT22;13371;52.080;5.624;2023-11-19T02:02:48;15.00;99.90
25450;DHT22;13371;52.080;5.624;2023-11-19T02:05:13;15.10;99.90
25450;DHT22;13371;52.080;5.624;2023-11-19T02:07:39;15.10;99.90
25450;DHT22;13371;52.080;5.624;2023-11-19T02:10:06;15.20;99.90
25450;DHT22;13371;52.080;5.624;2023-11-19T02:12:32;15.10;99.90
25450;DHT22;13371;52.080;5.624;2023-11-19T02:14:59;15.10;99.90
25450;DHT22;13371;52.080;5.624;2023-11-19T02:17:29;15.10;99.90
25450;DHT22;13371;52.080;5.624;2023-11-19T02:19:57;15.00;99.90
25450;DHT22;13371;52.080;5.624;2023-11-19T02:22:22;15.00;99.90
25450;DHT22;13371;52.080;5.624;2023-11-19T02:24:51;14.70;99.90
25450;DHT22;13371;52.080;5.624;2023-11-19T02:30:14;14.90;99.90
25450;DHT22;13371;52.080;5.624;2023-11-19T02:32:43;14.90;99.90
25450;DHT22;13371;52.080;5.624;2023-11-19T02:35:09;14.80;99.90
25450;DHT22;13371;52.080;5.624;2023-11-19T02:37:35;14.60;99.90
25450;DHT22;13371;52.080;5.624;2023-11-19T02:40:00;14.50;99.90
25450;DHT22;13371;52.080;5.624;2023-11-19T02:42:28;14.70;99.90
25450;DHT22;13371;52.080;5.624;2023-11-19T02:44:54;14.80;99.90
25450;DHT22;13371;52.080;5.624;2023-11-19T02:47:19;14.60;99.90
25450;DHT22;13371;52.080;5.624;2023-11-19T02:49:47;14.50;99.90
25450;DHT22;13371;52.080;5.624;2023-11-19T02:52:13;14.50;99.90
25450;DHT22;13371;52.080;5.624;2023-11-19T02:54:40;14.50;99.90
25450;DHT22;13371;52.080;5.624;2023-11-19T02:57:06;14.40;99.90
25450;DHT22;13371;52.080;5.624;2023-11-19T02:59:35;14.40;99.90
25450;DHT22;13371;52.080;5.624;2023-11-19T03:02:05;14.40;99.90
25450;DHT22;13371;52.080;5.624;2023-11-19T03:04:33;14.40;99.90
25450;DHT22;13371;52.080;5.624;2023-11-19T03:06:59;14.40;99.90
25450;DHT22;13371;52.080;5.624;2023-11-19T03:09:24;14.30;99.90
25450;DHT22;13371;52.080;5.624;2023-11-19T03:11:50;14.40;99.90
25450;DHT22;13371;52.080;5.624;2023-11-19T03:14:16;14.30;99.90
25450;DHT22;13371;52.080;5.624;2023-11-19T03:16:45;14.20;99.90
25450;DHT22;13371;52.080;5.624;2023-11-19T03:19:11;14.20;99.90
25450;DHT22;13371;52.080;5.624;2023-11-19T03:21:37;14.10;99.90
25450;DHT22;13371;52.080;5.624;2023-11-19T03:24:03;14.40;99.90
25450;DHT22;13371;52.080;5.624;2023-11-19T03:26:29;14.50;99.90
25450;DHT22;13371;52.080;5.624;2023-11-19T03:28:54;14.50;99.90
25450;DHT22;13371;52.080;5.624;2023-11-19T03:31:22;14.40;99.90
25450;DHT22;13371;52.080;5.624;2023-11-19T03:33:48;14.40;99.90
25450;DHT22;13371;52.080;5.624;2023-11-19T03:36:14;14.30;99.90
25450;DHT22;13371;52.080;5.624;2023-11-19T03:38:39;14.30;99.90
25450;DHT22;13371;52.080;5.624;2023-11-19T03:41:14;14.10;99.90
25450;DHT22;13371;52.080;5.624;2023-11-19T03:43:41;14.00;99.90
25450;DHT22;13371;52.080;5.624;2023-11-19T03:46:20;14.00;99.90
25450;DHT22;13371;52.080;5.624;2023-11-19T03:48:49;14.10;99.90
25450;DHT22;13371;52.080;5.624;2023-11-19T03:51:16;14.10;99.90
25450;DHT22;13371;52.080;5.624;2023-11-19T03:53:45;14.10;99.90
25450;DHT22;13371;52.080;5.624;2023-11-19T03:56:11;14.20;99.90
25450;DHT22;13371;52.080;5.624;2023-11-19T03:58:38;14.30;99.90
25450;DHT22;13371;52.080;5.624;2023-11-19T04:01:04;14.40;99.90
25450;DHT22;13371;52.080;5.624;2023-11-19T04:03:30;14.30;99.90
25450;DHT22;13371;52.080;5.624;2023-11-19T04:05:55;14.00;99.90
25450;DHT22;13371;52.080;5.624;2023-11-19T04:08:22;13.90;99.90
25450;DHT22;13371;52.080;5.624;2023-11-19T04:10:47;14.00;99.90
25450;DHT22;13371;52.080;5.624;2023-11-19T04:13:13;14.00;99.90
25450;DHT22;13371;52.080;5.624;2023-11-19T04:15:39;14.00;99.90
25450;DHT22;13371;52.080;5.624;2023-11-19T04:18:04;13.80;99.90
25450;DHT22;13371;52.080;5.624;2023-11-19T04:20:30;13.90;99.90
25450;DHT22;13371;52.080;5.624;2023-11-19T04:22:57;14.20;99.90
25450;DHT22;13371;52.080;5.624;2023-11-19T04:25:22;14.00;99.90
25450;DHT22;13371;52.080;5.624;2023-11-19T04:27:51;13.80;99.90
25450;DHT22;13371;52.080;5.624;2023-11-19T04:30:17;13.80;99.90
25450;DHT22;13371;52.080;5.624;2023-11-19T04:32:43;13.60;99.90
25450;DHT22;13371;52.080;5.624;2023-11-19T04:35:09;13.60;99.90
25450;DHT22;13371;52.080;5.624;2023-11-19T04:37:35;13.60;99.90
25450;DHT22;13371;52.080;5.624;2023-11-19T04:40:01;13.60;99.90
25450;DHT22;13371;52.080;5.624;2023-11-19T04:42:26;13.50;99.90
25450;DHT22;13371;52.080;5.624;2023-11-19T04:44:52;13.70;99.90
25450;DHT22;13371;52.080;5.624;2023-11-19T04:47:18;13.40;99.90
25450;DHT22;13371;52.080;5.624;2023-11-19T04:49:43;13.30;99.90
25450;DHT22;13371;52.080;5.624;2023-11-19T04:52:09;13.20;99.90
25450;DHT22;13371;52.080;5.624;2023-11-19T04:54:35;13.20;99.90
25450;DHT22;13371;52.080;5.624;2023-11-19T04:57:00;13.30;99.90
25450;DHT22;13371;52.080;5.624;2023-11-19T04:59:26;13.30;99.90
25450;DHT22;13371;52.080;5.624;2023-11-19T05:01:53;13.20;99.90
25450;DHT22;13371;52.080;5.624;2023-11-19T05:04:18;13.30;99.90
25450;DHT22;13371;52.080;5.624;2023-11-19T05:06:44;13.30;99.90
25450;DHT22;13371;52.080;5.624;2023-11-19T05:09:09;13.40;99.90
25450;DHT22;13371;52.080;5.624;2023-11-19T05:11:38;13.10;99.90
25450;DHT22;13371;52.080;5.624;2023-11-19T05:14:05;13.30;99.90
25450;DHT22;13371;52.080;5.624;2023-11-19T05:16:31;13.60;99.90
25450;DHT22;13371;52.080;5.624;2023-11-19T05:18:56;13.60;99.90
25450;DHT22;13371;52.080;5.624;2023-11-19T05:21:22;13.60;99.90
25450;DHT22;13371;52.080;5.624;2023-11-19T05:23:47;13.50;99.90
25450;DHT22;13371;52.080;5.624;2023-11-19T05:26:21;13.30;99.90
25450;DHT22;13371;52.080;5.624;2023-11-19T05:28:47;13.30;99.90
25450;DHT22;13371;52.080;5.624;2023-11-19T05:31:13;13.20;99.90
25450;DHT22;13371;52.080;5.624;2023-11-19T05:33:39;13.30;99.90
25450;DHT22;13371;52.080;5.624;2023-11-19T05:36:05;13.20;99.90
25450;DHT22;13371;52.080;5.624;2023-11-19T05:38:31;13.30;99.90
25450;DHT22;13371;52.080;5.624;2023-11-19T05:40:56;13.60;99.90
25450;DHT22;13371;52.080;5.624;2023-11-19T05:43:22;13.50;99.90
25450;DHT22;13371;52.080;5.624;2023-11-19T05:45:48;13.40;99.90
25450;DHT22;13371;52.080;5.624;2023-11-19T05:48:13;13.20;99.90
25450;DHT22;13371;52.080;5.624;2023-11-19T05:50:39;13.20;99.90
25450;DHT22;13371;52.080;5.624;2023-11-19T05:53:05;13.30;99.90
25450;DHT22;13371;52.080;5.624;2023-11-19T05:55:38;13.40;99.90
25450;DHT22;13371;52.080;5.624;2023-11-19T05:58:14;13.30;99.90
25450;DHT22;13371;52.080;5.624;2023-11-19T06:00:40;13.30;99.90
25450;DHT22;13371;52.080;5.624;2023-11-19T06:03:09;13.20;99.90
25450;DHT22;13371;52.080;5.624;2023-11-19T06:05:34;13.20;99.90
25450;DHT22;13371;52.080;5.624;2023-11-19T06:08:00;13.20;99.90
25450;DHT22;13371;52.080;5.624;2023-11-19T06:10:26;13.10;99.90
25450;DHT22;13371;52.080;5.624;2023-11-19T06:12:57;13.00;99.90
25450;DHT22;13371;52.080;5.624;2023-11-19T06:15:25;12.80;99.90
25450;DHT22;13371;52.080;5.624;2023-11-19T06:17:52;13.00;99.90
25450;DHT22;13371;52.080;5.624;2023-11-19T06:20:17;13.20;99.90
25450;DHT22;13371;52.080;5.624;2023-11-19T06:22:45;13.30;99.90
25450;DHT22;13371;52.080;5.624;2023-11-19T06:25:11;13.40;99.90
25450;DHT22;13371;52.080;5.624;2023-11-19T06:27:37;13.20;99.90
25450;DHT22;13371;52.080;5.624;2023-11-19T06:30:02;13.10;99.90
25450;DHT22;13371;52.080;5.624;2023-11-19T06:32:28;13.20;99.90
25450;DHT22;13371;52.080;5.624;2023-11-19T06:34:54;13.30;99.90
25450;DHT22;13371;52.080;5.624;2023-11-19T06:37:20;13.40;99.90
25450;DHT22;13371;52.080;5.624;2023-11-19T06:39:45;13.50;99.90
25450;DHT22;13371;52.080;5.624;2023-11-19T06:42:11;13.60;99.90
25450;DHT22;13371;52.080;5.624;2023-11-19T06:44:36;13.50;99.90
25450;DHT22;13371;52.080;5.624;2023-11-19T06:47:02;13.40;99.90
25450;DHT22;13371;52.080;5.624;2023-11-19T06:49:28;13.30;99.90
25450;DHT22;13371;52.080;5.624;2023-11-19T06:51:53;13.20;99.90
25450;DHT22;13371;52.080;5.624;2023-11-19T06:54:19;13.00;99.90
25450;DHT22;13371;52.080;5.624;2023-11-19T06:56:44;13.10;99.90
25450;DHT22;13371;52.080;5.624;2023-11-19T06:59:10;13.20;99.90
25450;DHT22;13371;52.080;5.624;2023-11-19T07:01:36;13.30;99.90
25450;DHT22;13371;52.080;5.624;2023-11-19T07:04:03;13.40;99.90
25450;DHT22;13371;52.080;5.624;2023-11-19T07:06:35;13.40;99.90
25450;DHT22;13371;52.080;5.624;2023-11-19T07:09:02;13.20;99.90
25450;DHT22;13371;52.080;5.624;2023-11-19T07:11:43;13.40;99.90
25450;DHT22;13371;52.080;5.624;2023-11-19T07:14:10;13.30;99.90
25450;DHT22;13371;52.080;5.624;2023-11-19T07:16:37;13.30;99.90
25450;DHT22;13371;52.080;5.624;2023-11-19T07:19:03;13.10;99.90
25450;DHT22;13371;52.080;5.624;2023-11-19T07:21:30;12.90;99.90
25450;DHT22;13371;52.080;5.624;2023-11-19T07:23:56;13.10;99.90
25450;DHT22;13371;52.080;5.624;2023-11-19T07:26:22;13.30;99.90
25450;DHT22;13371;52.080;5.624;2023-11-19T07:28:51;13.30;99.90
25450;DHT22;13371;52.080;5.624;2023-11-19T07:31:17;13.20;99.90
25450;DHT22;13371;52.080;5.624;2023-11-19T07:33:45;13.30;99.90
25450;DHT22;13371;52.080;5.624;2023-11-19T07:36:11;13.20;99.90
25450;DHT22;13371;52.080;5.624;2023-11-19T07:38:37;13.20;99.90
25450;DHT22;13371;52.080;5.624;2023-11-19T07:41:04;13.00;99.90
25450;DHT22;13371;52.080;5.624;2023-11-19T07:43:30;13.10;99.90
25450;DHT22;13371;52.080;5.624;2023-11-19T07:45:56;13.00;99.90
25450;DHT22;13371;52.080;5.624;2023-11-19T07:48:24;13.00;99.90
25450;DHT22;13371;52.080;5.624;2023-11-19T07:50:50;13.20;99.90
25450;DHT22;13371;52.080;5.624;2023-11-19T07:53:16;13.00;99.90
25450;DHT22;13371;52.080;5.624;2023-11-19T07:55:42;13.10;99.90
25450;DHT22;13371;52.080;5.624;2023-11-19T07:58:07;13.30;99.90
25450;DHT22;13371;52.080;5.624;2023-11-19T08:00:33;13.10;99.90
25450;DHT22;13371;52.080;5.624;2023-11-19T08:02:58;13.00;99.90
25450;DHT22;13371;52.080;5.624;2023-11-19T08:05:24;12.80;99.90
25450;DHT22;13371;52.080;5.624;2023-11-19T08:07:50;13.00;99.90
25450;DHT22;13371;52.080;5.624;2023-11-19T08:10:19;13.10;99.90
25450;DHT22;13371;52.080;5.624;2023-11-19T08:12:44;13.20;99.90
25450;DHT22;13371;52.080;5.624;2023-11-19T08:15:10;13.10;99.90
25450;DHT22;13371;52.080;5.624;2023-11-19T08:17:36;13.20;99.90
25450;DHT22;13371;52.080;5.624;2023-11-19T08:20:02;13.10;99.90
25450;DHT22;13371;52.080;5.624;2023-11-19T08:22:28;13.00;99.90
25450;DHT22;13371;52.080;5.624;2023-11-19T08:24:54;13.10;99.90
25450;DHT22;13371;52.080;5.624;2023-11-19T08:27:19;13.00;99.90
25450;DHT22;13371;52.080;5.624;2023-11-19T08:29:54;12.90;99.90
25450;DHT22;13371;52.080;5.624;2023-11-19T08:32:26;12.90;99.90
25450;DHT22;13371;52.080;5.624;2023-11-19T08:34:52;12.80;99.90
25450;DHT22;13371;52.080;5.624;2023-11-19T08:37:18;13.00;99.90
25450;DHT22;13371;52.080;5.624;2023-11-19T08:39:47;13.30;99.90
25450;DHT22;13371;52.080;5.624;2023-11-19T08:42:13;13.30;99.90
25450;DHT22;13371;52.080;5.624;2023-11-19T08:44:38;13.30;99.90
25450;DHT22;13371;52.080;5.624;2023-11-19T08:47:04;13.30;99.90
25450;DHT22;13371;52.080;5.624;2023-11-19T08:49:30;13.20;99.90
25450;DHT22;13371;52.080;5.624;2023-11-19T08:51:55;13.10;99.90
25450;DHT22;13371;52.080;5.624;2023-11-19T08:54:21;13.30;99.90
25450;DHT22;13371;52.080;5.624;2023-11-19T08:56:48;13.50;99.90
25450;DHT22;13371;52.080;5.624;2023-11-19T08:59:13;13.40;99.90
25450;DHT22;13371;52.080;5.624;2023-11-19T09:01:40;13.30;99.90
25450;DHT22;13371;52.080;5.624;2023-11-19T09:04:06;13.60;99.90
25450;DHT22;13371;52.080;5.624;2023-11-19T09:06:32;13.20;99.90
25450;DHT22;13371;52.080;5.624;2023-11-19T09:08:58;13.30;99.90
25450;DHT22;13371;52.080;5.624;2023-11-19T09:11:27;13.60;99.90
25450;DHT22;13371;52.080;5.624;2023-11-19T09:13:53;13.70;99.90
25450;DHT22;13371;52.080;5.624;2023-11-19T09:16:19;13.70;99.90
25450;DHT22;13371;52.080;5.624;2023-11-19T09:18:44;13.80;99.90
25450;DHT22;13371;52.080;5.624;2023-11-19T09:21:13;13.90;99.90
25450;DHT22;13371;52.080;5.624;2023-11-19T09:23:39;13.90;99.90
25450;DHT22;13371;52.080;5.624;2023-11-19T09:26:06;13.90;99.90
25450;DHT22;13371;52.080;5.624;2023-11-19T09:28:32;14.00;99.90
25450;DHT22;13371;52.080;5.624;2023-11-19T09:30:57;14.30;99.90
25450;DHT22;13371;52.080;5.624;2023-11-19T09:33:24;14.10;99.90
25450;DHT22;13371;52.080;5.624;2023-11-19T09:35:50;14.10;99.90
25450;DHT22;13371;52.080;5.624;2023-11-19T09:38:16;14.10;99.90
25450;DHT22;13371;52.080;5.624;2023-11-19T09:40:42;14.00;99.90
25450;DHT22;13371;52.080;5.624;2023-11-19T09:43:08;13.90;99.90
25450;DHT22;13371;52.080;5.624;2023-11-19T09:45:49;13.80;99.90
25450;DHT22;13371;52.080;5.624;2023-11-19T09:48:19;14.00;99.90
25450;DHT22;13371;52.080;5.624;2023-11-19T09:50:46;13.90;99.90
25450;DHT22;13371;52.080;5.624;2023-11-19T09:53:12;14.00;99.90
25450;DHT22;13371;52.080;5.624;2023-11-19T09:55:38;13.90;99.90
25450;DHT22;13371;52.080;5.624;2023-11-19T09:58:06;14.00;99.90
25450;DHT22;13371;52.080;5.624;2023-11-19T10:00:32;14.00;99.90
25450;DHT22;13371;52.080;5.624;2023-11-19T10:02:59;14.00;99.90
25450;DHT22;13371;52.080;5.624;2023-11-19T10:05:25;13.90;99.90
25450;DHT22;13371;52.080;5.624;2023-11-19T10:07:51;14.10;99.90
25450;DHT22;13371;52.080;5.624;2023-11-19T10:10:17;14.00;99.90
25450;DHT22;13371;52.080;5.624;2023-11-19T10:12:50;13.90;99.90
25450;DHT22;13371;52.080;5.624;2023-11-19T10:15:24;14.00;99.90
25450;DHT22;13371;52.080;5.624;2023-11-19T10:17:59;13.90;99.90
25450;DHT22;13371;52.080;5.624;2023-11-19T10:20:25;14.10;99.90
25450;DHT22;13371;52.080;5.624;2023-11-19T10:22:55;14.10;99.90
25450;DHT22;13371;52.080;5.624;2023-11-19T10:25:28;13.90;99.90
25450;DHT22;13371;52.080;5.624;2023-11-19T10:27:55;14.10;99.90
25450;DHT22;13371;52.080;5.624;2023-11-19T10:30:30;14.20;99.90
25450;DHT22;13371;52.080;5.624;2023-11-19T10:33:12;14.20;99.90
25450;DHT22;13371;52.080;5.624;2023-11-19T10:35:59;14.60;99.90
25450;DHT22;13371;52.080;5.624;2023-11-19T10:38:25;14.60;99.90
25450;DHT22;13371;52.080;5.624;2023-11-19T10:40:52;14.80;99.90
25450;DHT22;13371;52.080;5.624;2023-11-19T10:43:19;15.00;99.90
25450;DHT22;13371;52.080;5.624;2023-11-19T10:45:45;14.70;99.90
25450;DHT22;13371;52.080;5.624;2023-11-19T10:48:11;14.50;99.90
25450;DHT22;13371;52.080;5.624;2023-11-19T10:50:39;14.70;99.90
25450;DHT22;13371;52.080;5.624;2023-11-19T10:53:06;14.70;99.90
25450;DHT22;13371;52.080;5.624;2023-11-19T10:55:35;14.80;99.90
25450;DHT22;13371;52.080;5.624;2023-11-19T10:58:02;14.70;99.90
25450;DHT22;13371;52.080;5.624;2023-11-19T11:00:29;14.80;99.90
25450;DHT22;13371;52.080;5.624;2023-11-19T11:03:02;14.90;99.90
25450;DHT22;13371;52.080;5.624;2023-11-19T11:05:34;15.00;99.90
25450;DHT22;13371;52.080;5.624;2023-11-19T11:08:00;15.00;99.90
25450;DHT22;13371;52.080;5.624;2023-11-19T11:10:26;15.00;99.90
25450;DHT22;13371;52.080;5.624;2023-11-19T11:12:55;15.00;99.90
25450;DHT22;13371;52.080;5.624;2023-11-19T11:15:27;14.80;99.90
25450;DHT22;13371;52.080;5.624;2023-11-19T11:18:00;14.80;99.90
25450;DHT22;13371;52.080;5.624;2023-11-19T11:20:30;14.70;99.90
25450;DHT22;13371;52.080;5.624;2023-11-19T11:23:27;14.60;99.90
25450;DHT22;13371;52.080;5.624;2023-11-19T11:29:02;14.80;99.90
25450;DHT22;13371;52.080;5.624;2023-11-19T11:39:40;14.60;99.90
25450;DHT22;13371;52.080;5.624;2023-11-19T11:50:14;14.40;99.90
25450;DHT22;13371;52.080;5.624;2023-11-19T11:57:49;14.50;99.90
25450;DHT22;13371;52.080;5.624;2023-11-19T12:00:22;14.50;99.90
25450;DHT22;13371;52.080;5.624;2023-11-19T12:02:48;14.70;99.90
25450;DHT22;13371;52.080;5.624;2023-11-19T12:05:14;15.00;99.90
25450;DHT22;13371;52.080;5.624;2023-11-19T12:07:40;15.10;99.90
25450;DHT22;13371;52.080;5.624;2023-11-19T12:10:07;15.10;99.90
25450;DHT22;13371;52.080;5.624;2023-11-19T12:12:33;15.00;99.90
25450;DHT22;13371;52.080;5.624;2023-11-19T12:15:02;14.70;99.90
25450;DHT22;13371;52.080;5.624;2023-11-19T12:19:59;15.20;99.90
25450;DHT22;13371;52.080;5.624;2023-11-19T12:22:25;15.20;99.90
25450;DHT22;13371;52.080;5.624;2023-11-19T12:24:55;15.20;99.90
25450;DHT22;13371;52.080;5.624;2023-11-19T12:27:21;15.00;99.90
25450;DHT22;13371;52.080;5.624;2023-11-19T12:29:48;15.10;99.90
25450;DHT22;13371;52.080;5.624;2023-11-19T12:32:14;15.00;99.90
25450;DHT22;13371;52.080;5.624;2023-11-19T12:34:39;15.10;99.90
25450;DHT22;13371;52.080;5.624;2023-11-19T12:37:05;15.00;99.90
25450;DHT22;13371;52.080;5.624;2023-11-19T12:39:32;14.90;99.90
25450;DHT22;13371;52.080;5.624;2023-11-19T12:41:58;14.80;99.90
25450;DHT22;13371;52.080;5.624;2023-11-19T12:44:27;14.90;99.90
25450;DHT22;13371;52.080;5.624;2023-11-19T12:47:03;14.90;99.90
25450;DHT22;13371;52.080;5.624;2023-11-19T12:49:29;14.80;99.90
25450;DHT22;13371;52.080;5.624;2023-11-19T12:51:55;14.90;99.90
25450;DHT22;13371;52.080;5.624;2023-11-19T12:54:32;15.00;99.90
25450;DHT22;13371;52.080;5.624;2023-11-19T12:56:58;15.20;99.90
25450;DHT22;13371;52.080;5.624;2023-11-19T12:59:24;14.90;99.90
25450;DHT22;13371;52.080;5.624;2023-11-19T13:01:57;15.00;99.90
25450;DHT22;13371;52.080;5.624;2023-11-19T13:04:28;14.90;99.90
25450;DHT22;13371;52.080;5.624;2023-11-19T13:06:53;14.90;99.90
25450;DHT22;13371;52.080;5.624;2023-11-19T13:09:23;14.90;99.90
25450;DHT22;13371;52.080;5.624;2023-11-19T13:11:50;15.10;99.90
25450;DHT22;13371;52.080;5.624;2023-11-19T13:14:16;15.10;99.90
25450;DHT22;13371;52.080;5.624;2023-11-19T13:16:42;14.90;99.90
25450;DHT22;13371;52.080;5.624;2023-11-19T13:19:08;14.80;99.90
25450;DHT22;13371;52.080;5.624;2023-11-19T13:21:36;14.80;99.90
25450;DHT22;13371;52.080;5.624;2023-11-19T13:24:03;14.90;99.90
25450;DHT22;13371;52.080;5.624;2023-11-19T13:26:29;14.80;99.90
25450;DHT22;13371;52.080;5.624;2023-11-19T13:28:54;14.90;99.90
25450;DHT22;13371;52.080;5.624;2023-11-19T13:31:20;14.90;99.90
25450;DHT22;13371;52.080;5.624;2023-11-19T13:33:45;14.90;99.90
25450;DHT22;13371;52.080;5.624;2023-11-19T13:36:11;14.90;99.90
25450;DHT22;13371;52.080;5.624;2023-11-19T13:38:37;14.60;99.90
25450;DHT22;13371;52.080;5.624;2023-11-19T13:41:03;14.60;99.90
25450;DHT22;13371;52.080;5.624;2023-11-19T13:43:30;14.40;99.90
25450;DHT22;13371;52.080;5.624;2023-11-19T13:45:56;14.40;99.90
25450;DHT22;13371;52.080;5.624;2023-11-19T13:48:23;14.30;99.90
25450;DHT22;13371;52.080;5.624;2023-11-19T13:50:49;14.40;99.90
25450;DHT22;13371;52.080;5.624;2023-11-19T13:53:15;14.30;99.90
25450;DHT22;13371;52.080;5.624;2023-11-19T13:55:42;14.40;99.90
25450;DHT22;13371;52.080;5.624;2023-11-19T13:58:08;14.30;99.90
25450;DHT22;13371;52.080;5.624;2023-11-19T14:00:33;14.10;99.90
25450;DHT22;13371;52.080;5.624;2023-11-19T14:02:59;14.10;99.90
25450;DHT22;13371;52.080;5.624;2023-11-19T14:05:24;13.90;99.90
25450;DHT22;13371;52.080;5.624;2023-11-19T14:07:50;14.00;99.90
25450;DHT22;13371;52.080;5.624;2023-11-19T14:10:17;13.80;99.90
25450;DHT22;13371;52.080;5.624;2023-11-19T14:12:43;13.90;99.90
25450;DHT22;13371;52.080;5.624;2023-11-19T14:15:09;14.00;99.90
25450;DHT22;13371;52.080;5.624;2023-11-19T14:17:36;14.00;99.90
25450;DHT22;13371;52.080;5.624;2023-11-19T14:20:05;13.80;99.90
25450;DHT22;13371;52.080;5.624;2023-11-19T14:22:47;14.10;99.90
25450;DHT22;13371;52.080;5.624;2023-11-19T14:25:14;14.30;99.90
25450;DHT22;13371;52.080;5.624;2023-11-19T14:27:41;14.40;99.90
25450;DHT22;13371;52.080;5.624;2023-11-19T14:30:12;14.20;99.90
25450;DHT22;13371;52.080;5.624;2023-11-19T14:32:39;13.90;99.90
25450;DHT22;13371;52.080;5.624;2023-11-19T14:35:06;13.90;99.90
25450;DHT22;13371;52.080;5.624;2023-11-19T14:37:32;14.10;99.90
25450;DHT22;13371;52.080;5.624;2023-11-19T14:39:57;14.20;99.90
25450;DHT22;13371;52.080;5.624;2023-11-19T14:42:23;14.10;99.90
25450;DHT22;13371;52.080;5.624;2023-11-19T14:44:50;13.80;99.90
25450;DHT22;13371;52.080;5.624;2023-11-19T14:47:18;13.80;99.90
25450;DHT22;13371;52.080;5.624;2023-11-19T14:49:44;13.90;99.90
25450;DHT22;13371;52.080;5.624;2023-11-19T14:52:09;13.70;99.90
25450;DHT22;13371;52.080;5.624;2023-11-19T14:54:36;13.80;99.90
25450;DHT22;13371;52.080;5.624;2023-11-19T14:57:01;13.70;99.90
25450;DHT22;13371;52.080;5.624;2023-11-19T14:59:28;14.00;99.90
25450;DHT22;13371;52.080;5.624;2023-11-19T15:01:54;13.80;99.90
25450;DHT22;13371;52.080;5.624;2023-11-19T15:04:20;13.80;99.90
25450;DHT22;13371;52.080;5.624;2023-11-19T15:06:45;13.90;99.90
25450;DHT22;13371;52.080;5.624;2023-11-19T15:09:11;13.80;99.90
25450;DHT22;13371;52.080;5.624;2023-11-19T15:11:45;13.80;99.90
25450;DHT22;13371;52.080;5.624;2023-11-19T15:14:12;13.80;99.90
25450;DHT22;13371;52.080;5.624;2023-11-19T15:16:40;14.00;99.90
25450;DHT22;13371;52.080;5.624;2023-11-19T15:19:06;14.00;99.90
25450;DHT22;13371;52.080;5.624;2023-11-19T15:21:33;14.10;99.90
25450;DHT22;13371;52.080;5.624;2023-11-19T15:23:59;14.00;99.90
25450;DHT22;13371;52.080;5.624;2023-11-19T15:26:24;14.00;99.90
25450;DHT22;13371;52.080;5.624;2023-11-19T15:28:51;13.80;99.90
25450;DHT22;13371;52.080;5.624;2023-11-19T15:31:21;13.90;99.90
25450;DHT22;13371;52.080;5.624;2023-11-19T15:33:46;13.90;99.90
25450;DHT22;13371;52.080;5.624;2023-11-19T15:36:12;14.00;99.90
25450;DHT22;13371;52.080;5.624;2023-11-19T15:38:38;14.30;99.90
25450;DHT22;13371;52.080;5.624;2023-11-19T15:41:03;14.40;99.90
25450;DHT22;13371;52.080;5.624;2023-11-19T15:43:30;14.30;99.90
25450;DHT22;13371;52.080;5.624;2023-11-19T15:45:56;14.20;99.90
25450;DHT22;13371;52.080;5.624;2023-11-19T15:48:22;13.90;99.90
25450;DHT22;13371;52.080;5.624;2023-11-19T15:50:47;13.80;99.90
25450;DHT22;13371;52.080;5.624;2023-11-19T15:53:13;13.90;99.90
25450;DHT22;13371;52.080;5.624;2023-11-19T15:55:38;14.00;99.90
25450;DHT22;13371;52.080;5.624;2023-11-19T15:58:04;14.00;99.90